createdAt,value
2022-09-21T00:00:50.321Z,8.39
2022-09-21T00:03:19.424Z,8.43
2022-09-21T00:05:47.307Z,8.35
2022-09-21T00:08:15.401Z,8.24
2022-09-21T00:10:43.747Z,8.11
2022-09-21T00:13:13.371Z,8.09
2022-09-21T00:15:42.159Z,8.08
2022-09-21T00:18:11.372Z,8.08
2022-09-21T00:20:43.637Z,8.04
2022-09-21T00:23:11.535Z,8.07
2022-09-21T00:25:39.766Z,8.10
2022-09-21T00:28:07.368Z,8.10
2022-09-21T00:30:35.831Z,8.16
2022-09-21T00:33:03.526Z,8.14
2022-09-21T00:35:31.451Z,8.13
2022-09-21T00:38:03.014Z,8.10
2022-09-21T00:40:31.787Z,8.09
2022-09-21T00:43:13.170Z,8.03
2022-09-21T00:45:42.009Z,7.98
2022-09-21T00:48:10.351Z,7.93
2022-09-21T00:50:43.842Z,7.81
2022-09-21T00:53:13.000Z,7.78
2022-09-21T00:55:44.552Z,7.72
2022-09-21T00:58:15.569Z,7.61
2022-09-21T01:00:43.918Z,7.54
2022-09-21T01:03:13.470Z,7.51
2022-09-21T01:05:41.114Z,7.50
2022-09-21T01:08:13.054Z,7.50
2022-09-21T01:10:58.276Z,7.53
2022-09-21T01:13:37.586Z,7.48
2022-09-21T01:16:14.580Z,7.47
2022-09-21T01:18:47.783Z,7.45
2022-09-21T01:21:21.746Z,7.32
2022-09-21T01:24:09.863Z,7.23
2022-09-21T01:26:55.292Z,7.22
2022-09-21T01:29:28.466Z,7.17
2022-09-21T01:32:02.919Z,7.14
2022-09-21T01:34:34.949Z,7.08
2022-09-21T01:37:10.742Z,7.09
2022-09-21T01:39:41.906Z,7.08
2022-09-21T01:42:11.658Z,7.09
2022-09-21T01:44:43.398Z,7.06
2022-09-21T01:47:14.328Z,6.99
2022-09-21T01:49:45.997Z,6.97
2022-09-21T01:52:18.754Z,6.90
2022-09-21T01:54:51.401Z,6.89
2022-09-21T01:57:27.822Z,6.89
2022-09-21T01:59:58.624Z,6.89
2022-09-21T02:02:38.524Z,6.88
2022-09-21T02:05:07.356Z,6.92
2022-09-21T02:07:36.812Z,6.91
2022-09-21T02:10:06.833Z,6.94
2022-09-21T02:12:35.393Z,6.91
2022-09-21T02:15:05.222Z,6.87
2022-09-21T02:17:41.735Z,6.89
2022-09-21T02:20:20.242Z,6.90
2022-09-21T02:23:00.981Z,6.91
2022-09-21T02:25:38.440Z,6.92
2022-09-21T02:28:11.943Z,6.91
2022-09-21T02:30:45.574Z,6.90
2022-09-21T02:33:20.719Z,6.89
2022-09-21T02:35:54.087Z,6.88
2022-09-21T02:38:29.632Z,6.89
2022-09-21T02:41:06.531Z,6.87
2022-09-21T02:43:38.623Z,6.84
2022-09-21T02:46:13.094Z,6.84
2022-09-21T02:48:48.095Z,6.82
2022-09-21T02:51:26.074Z,6.78
2022-09-21T02:53:56.281Z,6.76
2022-09-21T02:56:24.622Z,6.73
2022-09-21T02:58:56.899Z,6.66
2022-09-21T03:01:27.790Z,6.58
2022-09-21T03:03:55.486Z,6.51
2022-09-21T03:06:23.129Z,6.41
2022-09-21T03:08:50.768Z,6.35
2022-09-21T03:11:18.561Z,6.19
2022-09-21T03:13:46.456Z,6.19
2022-09-21T03:16:14.949Z,6.16
2022-09-21T03:18:45.313Z,6.16
2022-09-21T03:21:13.467Z,6.12
2022-09-21T03:23:41.590Z,6.12
2022-09-21T03:26:09.729Z,6.06
2022-09-21T03:28:37.657Z,6.05
2022-09-21T03:31:06.482Z,5.96
2022-09-21T03:33:34.976Z,5.95
2022-09-21T03:36:04.162Z,5.75
2022-09-21T03:38:32.239Z,5.64
2022-09-21T03:40:59.891Z,5.67
2022-09-21T03:43:28.131Z,5.64
2022-09-21T03:45:55.825Z,5.45
2022-09-21T03:48:23.534Z,5.46
2022-09-21T03:50:51.474Z,5.41
2022-09-21T03:53:20.802Z,5.40
2022-09-21T03:55:48.523Z,5.39
2022-09-21T03:58:16.662Z,5.42
2022-09-21T04:00:44.266Z,5.45
2022-09-21T04:03:12.180Z,5.45
2022-09-21T04:05:40.016Z,5.47
2022-09-21T04:08:08.545Z,5.49
2022-09-21T04:10:37.510Z,5.53
2022-09-21T04:13:07.023Z,5.53
2022-09-21T04:15:34.702Z,5.52
2022-09-21T04:18:03.202Z,5.49
2022-09-21T04:20:30.802Z,5.46
2022-09-21T04:23:00.350Z,5.43
2022-09-21T04:25:28.059Z,5.39
2022-09-21T04:27:57.374Z,5.40
2022-09-21T04:30:24.983Z,5.37
2022-09-21T04:32:52.775Z,5.37
2022-09-21T04:35:20.419Z,5.39
2022-09-21T04:37:48.070Z,5.35
2022-09-21T04:40:15.906Z,5.36
2022-09-21T04:42:43.515Z,5.29
2022-09-21T04:45:12.880Z,5.32
2022-09-21T04:47:40.469Z,5.35
2022-09-21T04:50:09.349Z,5.36
2022-09-21T04:52:36.961Z,5.37
2022-09-21T04:55:05.082Z,5.37
2022-09-21T04:57:32.693Z,5.37
2022-09-21T05:00:00.758Z,5.37
2022-09-21T05:02:29.689Z,5.37
2022-09-21T05:04:57.658Z,5.34
2022-09-21T05:07:25.273Z,5.37
2022-09-21T05:10:04.440Z,5.35
2022-09-21T05:12:32.421Z,5.41
2022-09-21T05:15:01.442Z,5.46
2022-09-21T05:17:31.016Z,5.49
2022-09-21T05:19:58.898Z,5.43
2022-09-21T05:22:26.497Z,5.36
2022-09-21T05:24:55.677Z,5.33
2022-09-21T05:27:23.264Z,5.39
2022-09-21T05:29:51.490Z,5.49
2022-09-21T05:32:24.978Z,5.56
2022-09-21T05:35:04.806Z,5.66
2022-09-21T05:37:46.401Z,5.77
2022-09-21T05:40:15.415Z,5.84
2022-09-21T05:42:43.506Z,5.87
2022-09-21T05:45:15.680Z,5.85
2022-09-21T05:47:54.977Z,5.93
2022-09-21T05:50:35.934Z,6.03
2022-09-21T05:53:19.267Z,5.96
2022-09-21T05:55:56.565Z,6.10
2022-09-21T05:58:34.162Z,6.21
2022-09-21T06:01:17.671Z,6.37
2022-09-21T06:03:48.549Z,6.49
2022-09-21T06:06:19.012Z,6.53
2022-09-21T06:08:46.868Z,6.43
2022-09-21T06:11:15.194Z,6.63
2022-09-21T06:13:43.199Z,6.78
2022-09-21T06:16:11.346Z,6.87
2022-09-21T06:18:40.102Z,7.04
2022-09-21T06:21:09.103Z,7.16
2022-09-21T06:23:38.261Z,7.29
2022-09-21T06:26:06.468Z,7.40
2022-09-21T06:28:34.090Z,7.52
2022-09-21T06:31:01.783Z,7.63
2022-09-21T06:33:29.485Z,7.69
2022-09-21T06:35:59.008Z,7.76
2022-09-21T06:38:29.021Z,7.90
2022-09-21T06:41:03.228Z,8.08
2022-09-21T06:43:31.853Z,8.22
2022-09-21T06:46:01.458Z,8.27
2022-09-21T06:48:30.550Z,8.18
2022-09-21T06:51:00.007Z,8.24
2022-09-21T06:53:28.055Z,8.31
2022-09-21T06:56:03.053Z,8.45
2022-09-21T06:58:32.027Z,8.65
2022-09-21T07:01:00.475Z,8.81
2022-09-21T07:03:28.358Z,9.04
2022-09-21T07:05:56.718Z,9.16
2022-09-21T07:11:14.186Z,9.60
2022-09-21T07:13:41.982Z,9.72
2022-09-21T07:16:11.106Z,9.90
2022-09-21T07:18:44.298Z,10.14
2022-09-21T07:21:13.104Z,10.36
2022-09-21T07:23:40.681Z,10.56
2022-09-21T07:26:10.790Z,10.70
2022-09-21T07:28:40.574Z,10.91
2022-09-21T07:31:10.126Z,11.05
2022-09-21T07:33:38.105Z,11.19
2022-09-21T07:36:10.384Z,11.31
2022-09-21T07:38:39.724Z,11.45
2022-09-21T07:41:08.151Z,11.62
2022-09-21T07:43:35.778Z,11.84
2022-09-21T07:46:05.222Z,12.00
2022-09-21T07:48:32.877Z,12.19
2022-09-21T07:51:06.264Z,12.41
2022-09-21T07:53:34.245Z,12.49
2022-09-21T07:56:03.446Z,12.62
2022-09-21T07:58:48.565Z,12.78
2022-09-21T08:01:18.586Z,12.92
2022-09-21T08:03:46.279Z,13.05
2022-09-21T08:06:14.223Z,13.18
2022-09-21T08:08:42.299Z,13.28
2022-09-21T08:11:11.801Z,13.40
2022-09-21T08:13:39.469Z,13.50
2022-09-21T08:16:07.834Z,13.61
2022-09-21T08:18:39.617Z,13.77
2022-09-21T08:21:09.949Z,14.03
2022-09-21T08:23:42.817Z,14.25
2022-09-21T08:26:19.524Z,14.34
2022-09-21T08:28:49.765Z,14.41
2022-09-21T08:31:20.056Z,14.50
2022-09-21T08:33:50.011Z,14.69
2022-09-21T08:36:19.118Z,14.96
2022-09-21T08:38:48.060Z,15.15
2022-09-21T08:41:20.110Z,15.06
2022-09-21T08:43:53.310Z,15.17
2022-09-21T08:46:23.522Z,15.33
2022-09-21T08:48:57.347Z,15.36
2022-09-21T08:51:29.314Z,15.53
2022-09-21T08:54:02.242Z,15.64
2022-09-21T08:56:47.454Z,16.05
2022-09-21T08:59:17.859Z,16.03
2022-09-21T09:01:58.685Z,16.17
2022-09-21T09:04:40.178Z,16.61
2022-09-21T09:07:38.827Z,16.76
2022-09-21T09:10:19.435Z,16.90
2022-09-21T09:13:00.146Z,16.87
2022-09-21T09:15:47.278Z,17.10
2022-09-21T09:18:22.349Z,17.62
2022-09-21T09:20:58.521Z,17.68
2022-09-21T09:23:29.464Z,18.14
2022-09-21T09:26:02.203Z,18.53
2022-09-21T09:28:34.382Z,18.70
2022-09-21T09:31:10.496Z,19.12
2022-09-21T09:33:47.314Z,19.38
2022-09-21T09:36:20.772Z,19.59
2022-09-21T09:39:02.749Z,19.97
2022-09-21T09:41:58.441Z,19.39
2022-09-21T09:45:00.830Z,19.47
2022-09-21T09:47:43.284Z,18.82
2022-09-21T09:50:14.746Z,18.54
2022-09-21T09:52:45.182Z,18.77
2022-09-21T09:55:20.441Z,18.96
2022-09-21T09:57:49.332Z,19.12
2022-09-21T10:00:20.163Z,19.22
2022-09-21T10:02:49.913Z,19.53
2022-09-21T10:05:24.010Z,19.58
2022-09-21T10:07:54.699Z,19.47
2022-09-21T10:10:27.918Z,19.11
2022-09-21T10:12:58.336Z,19.25
2022-09-21T10:15:26.108Z,19.77
2022-09-21T10:18:01.106Z,20.00
2022-09-21T10:20:31.266Z,20.50
2022-09-21T10:23:01.182Z,20.88
2022-09-21T10:25:30.185Z,19.71
2022-09-21T10:27:59.149Z,19.46
2022-09-21T10:30:36.468Z,18.84
2022-09-21T10:33:04.274Z,19.37
2022-09-21T10:35:32.275Z,19.50
2022-09-21T10:38:22.412Z,19.57
2022-09-21T10:40:51.814Z,20.02
2022-09-21T10:43:27.236Z,20.35
2022-09-21T10:45:57.169Z,20.68
2022-09-21T10:48:27.163Z,20.95
2022-09-21T10:50:58.023Z,20.59
2022-09-21T10:53:29.314Z,20.89
2022-09-21T10:56:15.451Z,20.63
2022-09-21T10:59:21.857Z,20.49
2022-09-21T11:01:51.976Z,20.62
2022-09-21T11:04:28.346Z,20.56
2022-09-21T11:07:02.158Z,20.30
2022-09-21T11:09:36.168Z,19.34
2022-09-21T11:12:12.626Z,19.27
2022-09-21T11:14:52.861Z,19.12
2022-09-21T11:17:28.631Z,18.80
2022-09-21T11:20:08.049Z,18.93
2022-09-21T11:22:42.782Z,19.56
2022-09-21T11:25:25.301Z,19.52
2022-09-21T11:27:58.809Z,19.44
2022-09-21T11:30:40.082Z,18.92
2022-09-21T11:33:20.278Z,18.72
2022-09-21T11:36:00.397Z,18.61
2022-09-21T11:38:43.287Z,18.61
2022-09-21T11:41:28.143Z,18.48
2022-09-21T11:44:15.262Z,18.24
2022-09-21T11:46:50.349Z,18.23
2022-09-21T11:49:40.451Z,18.38
2022-09-21T11:52:22.538Z,18.18
2022-09-21T11:55:01.704Z,18.11
2022-09-21T11:57:34.818Z,18.02
2022-09-21T12:00:15.790Z,18.11
2022-09-21T12:03:14.504Z,18.11
2022-09-21T12:05:50.159Z,17.94
2022-09-21T12:08:38.092Z,17.97
2022-09-21T12:11:14.709Z,17.94
2022-09-21T12:13:51.914Z,17.82
2022-09-21T12:16:27.040Z,18.00
2022-09-21T12:19:00.695Z,17.92
2022-09-21T12:21:32.089Z,17.86
2022-09-21T12:24:05.443Z,17.84
2022-09-21T12:26:40.003Z,17.91
2022-09-21T12:29:14.595Z,17.99
2022-09-21T12:31:47.623Z,17.95
2022-09-21T12:34:20.349Z,17.73
2022-09-21T12:36:56.284Z,17.77
2022-09-21T12:39:30.423Z,17.75
2022-09-21T12:42:04.144Z,17.97
2022-09-21T12:44:52.510Z,18.04
2022-09-21T12:47:24.883Z,17.98
2022-09-21T12:50:00.942Z,18.05
2022-09-21T12:52:29.127Z,17.96
2022-09-21T12:55:05.949Z,17.69
2022-09-21T12:58:10.800Z,17.72
2022-09-21T13:00:45.821Z,17.47
2022-09-21T13:03:20.345Z,17.47
2022-09-21T13:06:11.963Z,17.58
2022-09-21T13:08:44.530Z,17.63
2022-09-21T13:11:13.254Z,17.59
2022-09-21T13:13:52.901Z,17.59
2022-09-21T13:16:27.612Z,17.49
2022-09-21T13:18:57.744Z,17.54
2022-09-21T13:21:29.923Z,17.51
2022-09-21T13:24:00.757Z,17.45
2022-09-21T13:26:37.079Z,17.65
2022-09-21T13:29:26.061Z,17.71
2022-09-21T13:31:58.170Z,17.59
2022-09-21T13:34:36.555Z,17.62
2022-09-21T13:37:36.738Z,17.55
2022-09-21T13:40:42.025Z,17.46
2022-09-21T13:43:48.130Z,17.26
2022-09-21T13:46:49.651Z,17.29
2022-09-21T13:49:23.283Z,17.20
2022-09-21T13:51:54.131Z,17.06
2022-09-21T13:54:26.257Z,17.16
2022-09-21T13:57:09.547Z,17.11
2022-09-21T13:59:40.698Z,17.26
2022-09-21T14:02:25.228Z,17.15
2022-09-21T14:04:53.314Z,17.22
2022-09-21T14:07:21.706Z,17.19
2022-09-21T14:09:58.892Z,17.09
2022-09-21T14:12:33.580Z,17.02
2022-09-21T14:15:27.366Z,16.92
2022-09-21T14:18:35.792Z,17.06
2022-09-21T14:21:11.247Z,17.12
2022-09-21T14:23:39.993Z,17.09
2022-09-21T14:26:33.081Z,17.00
2022-09-21T14:29:09.223Z,16.83
2022-09-21T14:31:40.241Z,16.79
2022-09-21T14:34:23.436Z,16.83
2022-09-21T14:36:55.412Z,16.75
2022-09-21T14:39:26.901Z,16.86
2022-09-21T14:41:59.910Z,16.94
2022-09-21T14:44:31.775Z,16.89
2022-09-21T14:47:17.722Z,17.04
2022-09-21T14:50:12.975Z,17.32
2022-09-21T14:53:01.575Z,17.76
2022-09-21T14:55:43.083Z,18.53
2022-09-21T14:58:28.538Z,19.18
2022-09-21T15:00:59.627Z,19.41
2022-09-21T15:03:58.342Z,19.48
2022-09-21T15:06:49.804Z,18.93
2022-09-21T15:09:53.863Z,18.59
2022-09-21T15:12:30.395Z,18.37
2022-09-21T15:15:22.125Z,18.24
2022-09-21T15:17:59.259Z,18.23
2022-09-21T15:20:29.441Z,18.08
2022-09-21T15:22:58.873Z,17.95
2022-09-21T15:25:30.259Z,18.07
2022-09-21T15:28:00.342Z,18.74
2022-09-21T15:30:33.162Z,19.24
2022-09-21T15:33:02.943Z,19.73
2022-09-21T15:35:32.862Z,20.15
2022-09-21T15:38:01.859Z,20.07
2022-09-21T15:40:31.722Z,20.04
2022-09-21T15:43:03.975Z,19.82
2022-09-21T15:45:37.371Z,19.57
2022-09-21T15:48:11.199Z,19.63
2022-09-21T15:50:39.045Z,19.71
2022-09-21T15:53:14.681Z,19.63
2022-09-21T15:55:47.998Z,19.62
2022-09-21T15:58:31.722Z,19.83
2022-09-21T16:01:01.397Z,20.44
2022-09-21T16:03:30.696Z,20.57
2022-09-21T16:06:02.410Z,20.87
2022-09-21T16:08:33.845Z,20.86
2022-09-21T16:11:18.789Z,20.55
2022-09-21T16:14:05.971Z,19.89
2022-09-21T16:17:06.252Z,19.08
2022-09-21T16:19:44.832Z,18.46
2022-09-21T16:22:14.594Z,18.03
2022-09-21T16:24:46.217Z,17.78
2022-09-21T16:27:17.905Z,17.44
2022-09-21T16:29:48.459Z,17.11
2022-09-21T16:32:29.851Z,16.88
2022-09-21T16:35:25.253Z,16.59
2022-09-21T16:37:58.058Z,16.41
2022-09-21T16:40:26.886Z,16.17
2022-09-21T16:42:55.575Z,16.04
2022-09-21T16:45:27.215Z,15.89
2022-09-21T16:47:58.157Z,15.84
2022-09-21T16:50:25.939Z,15.83
2022-09-21T16:52:54.274Z,15.74
2022-09-21T16:55:28.238Z,15.60
2022-09-21T16:57:57.570Z,15.42
2022-09-21T17:00:25.276Z,15.26
2022-09-21T17:02:53.590Z,15.12
2022-09-21T17:05:22.607Z,14.96
2022-09-21T17:07:54.938Z,14.77
2022-09-21T17:10:27.247Z,14.64
2022-09-21T17:12:55.798Z,14.49
2022-09-21T17:15:23.831Z,14.37
2022-09-21T17:17:51.665Z,14.27
2022-09-21T17:20:27.738Z,14.13
2022-09-21T17:22:56.519Z,13.99
2022-09-21T17:25:24.186Z,13.88
2022-09-21T17:27:53.072Z,13.76
2022-09-21T17:30:21.099Z,13.63
2022-09-21T17:32:50.290Z,13.49
2022-09-21T17:35:26.307Z,13.33
2022-09-21T17:37:55.627Z,13.23
2022-09-21T17:40:24.755Z,13.06
2022-09-21T17:42:55.751Z,13.01
2022-09-21T17:45:32.498Z,12.93
2022-09-21T17:48:00.699Z,12.85
2022-09-21T17:50:29.310Z,12.66
2022-09-21T17:53:16.900Z,12.50
2022-09-21T17:55:50.007Z,12.33
2022-09-21T17:58:33.807Z,12.21
2022-09-21T18:01:07.404Z,12.15
2022-09-21T18:03:40.980Z,12.10
2022-09-21T18:06:09.855Z,12.00
2022-09-21T18:08:40.964Z,11.93
2022-09-21T18:11:23.250Z,11.87
2022-09-21T18:13:59.478Z,11.81
2022-09-21T18:16:31.524Z,11.78
2022-09-21T18:19:07.343Z,11.70
2022-09-21T18:21:40.712Z,11.60
2022-09-21T18:24:22.011Z,11.51
2022-09-21T18:26:52.252Z,11.42
2022-09-21T18:29:39.398Z,11.36
2022-09-21T18:32:32.197Z,11.34
2022-09-21T18:35:42.033Z,11.29
2022-09-21T18:38:18.230Z,11.20
2022-09-21T18:41:11.189Z,11.18
2022-09-21T18:43:51.705Z,11.10
2022-09-21T18:46:28.834Z,11.05
2022-09-21T18:49:03.314Z,10.96
2022-09-21T18:51:38.510Z,10.95
2022-09-21T18:54:07.160Z,10.88
2022-09-21T18:56:38.538Z,10.86
2022-09-21T18:59:07.521Z,10.80
2022-09-21T19:01:35.899Z,10.79
2022-09-21T19:04:04.899Z,10.80
2022-09-21T19:06:41.150Z,10.75
2022-09-21T19:09:25.961Z,10.71
2022-09-21T19:12:01.347Z,10.66
2022-09-21T19:14:38.311Z,10.62
2022-09-21T19:17:17.560Z,10.59
2022-09-21T19:19:54.169Z,10.56
2022-09-21T19:22:31.139Z,10.49
2022-09-21T19:25:06.143Z,10.43
2022-09-21T19:27:40.142Z,10.39
2022-09-21T19:30:11.813Z,10.35
2022-09-21T19:32:45.415Z,10.32
2022-09-21T19:35:20.380Z,10.31
2022-09-21T19:37:48.827Z,10.31
2022-09-21T19:40:18.666Z,10.31
2022-09-21T19:43:00.453Z,10.25
2022-09-21T19:45:33.518Z,10.19
2022-09-21T19:48:05.818Z,10.13
2022-09-21T19:50:41.018Z,10.11
2022-09-21T19:53:28.945Z,10.05
2022-09-21T19:56:16.448Z,9.97
2022-09-21T19:59:03.500Z,9.92
2022-09-21T20:01:35.148Z,9.86
2022-09-21T20:04:04.088Z,9.81
2022-09-21T20:06:36.832Z,9.76
2022-09-21T20:09:12.048Z,9.68
2022-09-21T20:11:45.083Z,9.62
2022-09-21T20:14:23.911Z,9.59
2022-09-21T20:16:54.383Z,9.57
2022-09-21T20:19:36.567Z,9.55
2022-09-21T20:22:12.146Z,9.55
2022-09-21T20:24:46.882Z,9.53
2022-09-21T20:27:26.298Z,9.48
2022-09-21T20:29:55.664Z,9.41
2022-09-21T20:32:23.714Z,9.35
2022-09-21T20:34:51.389Z,9.31
2022-09-21T20:37:19.296Z,9.28
2022-09-21T20:39:47.364Z,9.23
2022-09-21T20:42:20.521Z,9.19
2022-09-21T20:44:48.204Z,9.14
2022-09-21T20:47:18.921Z,9.11
2022-09-21T20:49:47.678Z,9.05
2022-09-21T20:52:16.733Z,9.06
2022-09-21T20:54:49.237Z,9.01
2022-09-21T20:57:17.778Z,9.00
2022-09-21T20:59:45.564Z,8.99
2022-09-21T21:02:13.747Z,8.96
2022-09-21T21:04:43.084Z,8.94
2022-09-21T21:07:10.994Z,8.88
2022-09-21T21:09:38.642Z,8.86
2022-09-21T21:12:06.736Z,8.79
2022-09-21T21:14:34.707Z,8.75
2022-09-21T21:17:02.440Z,8.72
2022-09-21T21:19:31.243Z,8.69
2022-09-21T21:22:00.278Z,8.65
2022-09-21T21:24:44.076Z,8.63
2022-09-21T21:27:16.225Z,8.59
2022-09-21T21:29:46.618Z,8.55
2022-09-21T21:32:15.063Z,8.54
2022-09-21T21:34:43.178Z,8.51
2022-09-21T21:37:12.991Z,8.45
2022-09-21T21:39:41.049Z,8.41
2022-09-21T21:42:08.886Z,8.40
2022-09-21T21:44:37.152Z,8.35
2022-09-21T21:47:27.365Z,8.33
2022-09-21T21:49:53.389Z,8.32
2022-09-21T21:52:22.459Z,8.31
2022-09-21T21:54:50.105Z,8.25
2022-09-21T21:57:18.095Z,8.22
2022-09-21T21:59:45.887Z,8.20
2022-09-21T22:02:13.606Z,8.17
2022-09-21T22:04:42.528Z,8.16
2022-09-21T22:07:10.192Z,8.12
2022-09-21T22:09:39.293Z,8.07
2022-09-21T22:12:07.720Z,8.01
2022-09-21T22:14:35.759Z,7.97
2022-09-21T22:17:03.821Z,7.97
2022-09-21T22:19:32.938Z,7.93
2022-09-21T22:22:00.633Z,7.92
2022-09-21T22:24:28.717Z,7.88
2022-09-21T22:26:57.973Z,7.85
2022-09-21T22:29:25.987Z,7.84
2022-09-21T22:31:55.558Z,7.83
2022-09-21T22:34:23.351Z,7.81
2022-09-21T22:36:51.580Z,7.78
2022-09-21T22:39:19.275Z,7.75
2022-09-21T22:41:46.954Z,7.73
2022-09-21T22:44:15.979Z,7.70
2022-09-21T22:46:43.946Z,7.70
2022-09-21T22:49:11.603Z,7.72
2022-09-21T22:51:39.662Z,7.72
2022-09-21T22:54:07.483Z,7.73
2022-09-21T22:56:36.294Z,7.74
2022-09-21T22:59:05.799Z,7.72
2022-09-21T23:01:37.479Z,7.69
2022-09-21T23:04:08.076Z,7.56
2022-09-21T23:06:38.486Z,7.44
2022-09-21T23:09:09.069Z,7.27
2022-09-21T23:11:39.060Z,7.22
2022-09-21T23:14:06.783Z,7.12
2022-09-21T23:16:36.293Z,7.06
2022-09-21T23:19:03.999Z,6.98
2022-09-21T23:21:32.567Z,6.96
2022-09-21T23:24:02.403Z,6.97
2022-09-21T23:26:33.389Z,6.96
2022-09-21T23:29:02.699Z,6.98
2022-09-21T23:31:32.137Z,7.00
2022-09-21T23:34:05.331Z,6.99
2022-09-21T23:36:33.448Z,6.97
2022-09-21T23:39:01.181Z,7.00
2022-09-21T23:41:31.415Z,6.99
2022-09-21T23:44:00.127Z,7.00
2022-09-21T23:46:30.919Z,6.99
2022-09-21T23:48:59.419Z,6.96
2022-09-21T23:51:30.799Z,6.92
2022-09-21T23:53:59.077Z,6.92
2022-09-21T23:56:27.142Z,6.95
2022-09-21T23:58:54.963Z,6.95
